Time;durP1;ratioP1;P1;durP2;ratioP2;P2;SDS_P1;SDS_P2;PMS_P1;PMS_P2;Temp;Humidity;BMP_temperature;BMP_pressure;BME280_temperature;BME280_humidity;BME280_pressure;Samples;Min_cycle;Max_cycle;Signal;HPM_P1;HPM_P2
2023/02/13 00:00:29;;;;;;;24.35;16.42;;;;;;;7.92;96.80;102990.88;4933481;29;20127;-77
2023/02/13 00:02:56;;;;;;;27.15;17.52;;;;;;;7.88;96.96;102980.69;4941158;29;20425;-79
2023/02/13 00:05:22;;;;;;;25.52;15.27;;;;;;;7.88;97.10;102980.69;4940450;29;20087;-80
2023/02/13 00:07:49;;;;;;;25.20;15.88;;;;;;;7.86;97.32;102975.56;4938540;29;20135;-77
2023/02/13 00:10:18;;;;;;;27.85;16.27;;;;;;;7.88;97.26;102983.28;4939271;29;20051;-77
2023/02/13 00:12:46;;;;;;;27.05;16.48;;;;;;;7.90;97.27;102971.03;4932825;29;20489;-78
2023/02/13 00:15:12;;;;;;;27.88;17.02;;;;;;;7.85;97.38;102973.03;4945880;29;20052;-79
2023/02/13 00:17:39;;;;;;;26.00;16.20;;;;;;;7.83;97.17;102967.06;4945501;29;20134;-77
2023/02/13 00:20:07;;;;;;;24.38;16.15;;;;;;;7.84;97.57;102976.56;4941802;29;20130;-76
2023/02/13 00:22:35;;;;;;;29.80;17.25;;;;;;;7.83;97.64;102965.28;4931443;29;20136;-77
2023/02/13 00:25:02;;;;;;;28.77;17.10;;;;;;;7.82;97.70;102970.59;4940610;29;20183;-76
2023/02/13 00:27:28;;;;;;;28.23;18.27;;;;;;;7.83;97.58;102961.84;4939653;29;20126;-79
2023/02/13 00:29:56;;;;;;;30.42;17.90;;;;;;;7.87;97.66;102968.56;4940890;29;20142;-79
2023/02/13 00:32:23;;;;;;;31.27;18.23;;;;;;;7.83;97.82;102956.63;4932438;29;20154;-77
2023/02/13 00:34:50;;;;;;;30.27;18.10;;;;;;;7.83;97.85;102964.44;4940276;29;20055;-79
2023/02/13 00:37:16;;;;;;;27.05;17.13;;;;;;;7.83;97.56;102948.81;4931603;29;20052;-77
2023/02/13 00:39:43;;;;;;;28.98;17.98;;;;;;;7.83;97.12;102954.03;4938322;29;20051;-78
2023/02/13 00:42:10;;;;;;;29.23;18.25;;;;;;;7.83;97.68;102952.25;4939128;29;20529;-78
2023/02/13 00:44:36;;;;;;;31.35;18.65;;;;;;;7.81;97.73;102951.50;4938639;29;20124;-78
2023/02/13 00:47:04;;;;;;;27.80;17.08;;;;;;;7.83;97.75;102954.03;4939557;29;20054;-78
2023/02/13 00:49:31;;;;;;;27.20;17.75;;;;;;;7.84;97.60;102953.09;4938867;29;20512;-75
2023/02/13 00:51:57;;;;;;;30.58;18.33;;;;;;;7.82;97.51;102947.13;4930103;29;20057;-77
2023/02/13 00:54:24;;;;;;;27.70;16.83;;;;;;;7.84;97.41;102946.13;4939768;29;20134;-78
2023/02/13 00:56:50;;;;;;;27.30;17.33;;;;;;;7.87;97.32;102943.34;4939007;29;20142;-78
2023/02/13 00:59:17;;;;;;;26.70;16.77;;;;;;;7.85;97.44;102936.53;4939658;29;20090;-79
2023/02/13 01:01:44;;;;;;;28.17;17.75;;;;;;;7.78;97.73;102936.03;4939232;29;20055;-77
2023/02/13 01:04:12;;;;;;;26.88;16.75;;;;;;;7.82;97.78;102941.91;4938136;29;20134;-79
2023/02/13 01:06:38;;;;;;;26.77;16.42;;;;;;;7.78;97.76;102940.38;4933012;29;20519;-77
2023/02/13 01:09:05;;;;;;;28.45;16.70;;;;;;;7.81;97.50;102935.84;4930901;29;20055;-79
2023/02/13 01:14:02;;;;;;;25.58;16.58;;;;;;;7.74;97.77;102926.69;4944513;29;20055;-82
2023/02/13 01:16:29;;;;;;;26.13;16.95;;;;;;;7.81;97.86;102940.22;4945107;29;20044;-81
2023/02/13 01:18:55;;;;;;;26.73;16.52;;;;;;;7.81;97.74;102948.06;4943121;29;20055;-82
2023/02/13 01:21:23;;;;;;;24.85;16.05;;;;;;;7.81;97.85;102938.47;4942616;29;20074;-81
2023/02/13 01:23:50;;;;;;;24.27;14.95;;;;;;;7.81;97.75;102935.00;4943450;29;20131;-84
2023/02/13 01:26:20;;;;;;;26.95;16.38;;;;;;;7.78;97.84;102935.19;4941746;29;20064;-80
2023/02/13 01:28:47;;;;;;;24.65;15.57;;;;;;;7.75;98.05;102928.38;4942715;29;20047;-83
2023/02/13 01:31:14;;;;;;;24.05;15.25;;;;;;;7.73;98.66;102931.97;4945022;29;20335;-82
2023/02/13 01:33:44;;;;;;;24.45;15.75;;;;;;;7.75;98.25;102940.56;4952654;29;20075;-84
2023/02/13 01:36:15;;;;;;;24.33;15.50;;;;;;;7.75;98.29;102930.13;4955438;29;20067;-83
2023/02/13 01:38:44;;;;;;;24.90;15.90;;;;;;;7.78;98.01;102936.03;4934624;29;20059;-82
2023/02/13 01:41:14;;;;;;;23.75;15.25;;;;;;;7.75;98.04;102930.13;4942776;29;20051;-83
2023/02/13 01:43:48;;;;;;;24.05;15.07;;;;;;;7.58;98.23;102899.75;4932196;29;20048;-84
2023/02/13 01:46:20;;;;;;;22.02;14.55;;;;;;;7.60;98.06;102911.75;4936132;29;20461;-83
2023/02/13 01:48:49;;;;;;;23.33;15.25;;;;;;;7.57;98.11;102905.88;4940356;29;20050;-82
2023/02/13 01:51:20;;;;;;;20.95;13.88;;;;;;;7.60;98.23;102922.19;4942355;29;20058;-82
2023/02/13 01:53:56;;;;;;;23.80;14.15;;;;;;;7.66;98.56;102927.09;4940112;29;20066;-83
2023/02/13 01:56:27;;;;;;;24.10;14.80;;;;;;;7.63;98.42;102927.25;4940829;29;20043;-82
2023/02/13 01:58:59;;;;;;;20.52;13.75;;;;;;;7.66;98.50;102932.28;4941304;29;20052;-83
2023/02/13 02:01:28;;;;;;;22.77;14.77;;;;;;;7.60;98.52;102916.97;4942205;29;20083;-81
2023/02/13 02:03:58;;;;;;;24.88;14.95;;;;;;;7.54;98.26;102917.34;4941993;29;20643;-82
2023/02/13 02:06:32;;;;;;;20.05;13.85;;;;;;;7.66;98.30;102934.91;4941888;29;20044;-83
2023/02/13 02:09:03;;;;;;;21.98;13.73;;;;;;;7.64;98.53;102933.28;4942010;29;20051;-83
2023/02/13 02:11:36;;;;;;;22.67;14.27;;;;;;;7.61;98.74;102934.31;4942492;29;20090;-83
2023/02/13 02:14:03;;;;;;;21.60;13.85;;;;;;;7.54;98.88;102930.34;4943115;29;20056;-82
2023/02/13 02:16:31;;;;;;;21.73;14.25;;;;;;;7.57;98.97;102932.78;4943335;29;20057;-82
2023/02/13 02:18:58;;;;;;;23.08;14.90;;;;;;;7.55;99.09;102937.25;4941410;29;20071;-78
2023/02/13 02:21:53;;;;;;;22.25;14.73;;;;;;;7.52;99.25;102933.97;4940699;29;20325;-82
2023/02/13 02:24:47;;;;;;;21.42;14.57;;;;;;;7.55;99.54;102934.66;4934525;29;20256;-80
2023/02/13 02:27:47;;;;;;;23.52;15.82;;;;;;;7.51;99.52;102940.09;4941038;29;20061;-83
2023/02/13 02:30:49;;;;;;;22.38;15.30;;;;;;;7.53;99.55;102938.25;4940834;29;20078;-83
2023/02/13 02:33:33;;;;;;;23.90;15.07;;;;;;;7.54;99.70;102938.16;4939110;29;20052;-83
2023/02/13 02:36:16;;;;;;;21.77;15.13;;;;;;;7.47;99.78;102929.00;4942014;29;20052;-82
2023/02/13 02:38:56;;;;;;;21.75;15.00;;;;;;;7.52;99.74;102940.00;4933317;29;20079;-82
2023/02/13 02:41:42;;;;;;;22.67;14.48;;;;;;;7.51;99.89;102940.09;4941073;29;20079;-80
2023/02/13 02:44:17;;;;;;;22.20;14.57;;;;;;;7.52;100.00;102937.41;4942167;29;20060;-82
2023/02/13 02:50:00;;;;;;;20.08;14.02;;;;;;;7.46;100.00;102934.28;4941360;29;20070;-83
2023/02/13 02:52:37;;;;;;;22.35;15.00;;;;;;;7.42;100.00;102937.97;4941320;29;20052;-78
2023/02/13 02:55:10;;;;;;;23.60;15.15;;;;;;;7.40;100.00;102935.44;4939195;29;20052;-80
2023/02/13 03:06:22;;;;;;;21.17;14.98;;;;;;;7.42;100.00;102943.16;4900565;29;20143;-81
2023/02/13 03:14:26;;;;;;;23.60;16.60;;;;;;;7.41;100.00;102931.91;4940548;29;20079;-82
2023/02/13 03:23:07;;;;;;;22.95;15.93;;;;;;;7.30;100.00;102931.63;4933189;29;20155;-82
2023/02/13 03:25:44;;;;;;;27.80;17.85;;;;;;;7.13;100.00;102906.44;4939936;29;20051;-81
2023/02/13 03:31:15;;;;;;;24.85;17.10;;;;;;;7.21;100.00;102939.88;4935897;29;20062;-81
2023/02/13 03:33:59;;;;;;;24.15;17.50;;;;;;;7.08;100.00;102912.81;4936564;29;20052;-82
2023/02/13 03:39:24;;;;;;;25.35;17.08;;;;;;;7.13;100.00;102921.22;4943681;29;20115;-81
2023/02/13 03:41:57;;;;;;;22.58;16.73;;;;;;;7.28;100.00;102936.06;4944906;29;20055;-82
2023/02/13 03:47:45;;;;;;;23.95;17.02;;;;;;;7.15;100.00;102929.78;4945718;29;20130;-82
2023/02/13 03:50:13;;;;;;;24.42;16.55;;;;;;;7.20;100.00;102933.00;4945007;29;20159;-81
2023/02/13 03:52:50;;;;;;;24.92;18.13;;;;;;;7.19;100.00;102931.31;4944357;29;20071;-81
2023/02/13 04:01:01;;;;;;;23.02;16.23;;;;;;;7.07;100.00;102938.00;4942996;29;20094;-80
2023/02/13 04:03:35;;;;;;;23.83;16.85;;;;;;;7.06;100.00;102930.28;4943490;29;20051;-80
2023/02/13 04:06:07;;;;;;;22.58;16.05;;;;;;;7.12;100.00;102936.00;4942586;29;20052;-82
2023/02/13 04:08:33;;;;;;;24.90;16.95;;;;;;;7.13;100.00;102936.84;4942832;29;20170;-81
2023/02/13 04:11:07;;;;;;;23.55;16.92;;;;;;;7.12;100.00;102941.19;4944639;29;20125;-80
2023/02/13 04:13:36;;;;;;;25.52;17.33;;;;;;;7.05;100.00;102933.78;4944804;29;20147;-82
2023/02/13 04:16:10;;;;;;;24.42;16.83;;;;;;;7.03;100.00;102935.63;4947752;29;20058;-81
2023/02/13 04:18:38;;;;;;;25.52;18.35;;;;;;;6.93;100.00;102943.91;4949708;29;20112;-80
2023/02/13 04:21:08;;;;;;;27.40;18.80;;;;;;;6.95;100.00;102942.06;4946644;29;20096;-82
2023/02/13 04:23:46;;;;;;;26.75;18.10;;;;;;;6.95;100.00;102952.47;4946584;29;20075;-82
2023/02/13 04:27:01;;;;;;;25.73;17.50;;;;;;;6.83;100.00;102940.06;4946493;29;20048;-82
2023/02/13 04:30:03;;;;;;;26.33;17.92;;;;;;;6.87;100.00;102954.59;4935328;29;20507;-83
2023/02/13 04:35:27;;;;;;;30.63;19.02;;;;;;;6.86;100.00;102955.53;4945541;29;20428;-82
2023/02/13 04:37:57;;;;;;;29.73;19.80;;;;;;;6.77;100.00;102955.13;4946078;29;20058;-82
2023/02/13 04:40:35;;;;;;;27.63;19.40;;;;;;;6.82;100.00;102953.97;4945166;29;20094;-82
2023/02/13 04:43:12;;;;;;;29.92;19.95;;;;;;;6.61;100.00;102923.81;4943064;29;20114;-81
2023/02/13 04:45:55;;;;;;;29.55;21.30;;;;;;;6.59;100.00;102934.31;4944621;29;20052;-83
2023/02/13 04:48:22;;;;;;;29.95;20.90;;;;;;;6.70;100.00;102951.13;4973556;23;20043;-79
2023/02/13 04:50:49;;;;;;;29.60;20.83;;;;;;;6.67;100.00;102946.91;4959116;28;20083;-77
2023/02/13 04:53:15;;;;;;;29.65;20.98;;;;;;;6.61;100.00;102945.47;4959242;28;20451;-76
2023/02/13 04:55:42;;;;;;;29.55;21.25;;;;;;;6.56;100.00;102942.25;4951842;29;20130;-76
2023/02/13 04:58:09;;;;;;;31.67;20.60;;;;;;;6.49;100.00;102937.41;4957628;28;20047;-77
2023/02/13 05:00:36;;;;;;;30.52;22.02;;;;;;;6.54;100.00;102944.09;4956406;29;20043;-78
2023/02/13 05:03:06;;;;;;;31.40;21.92;;;;;;;6.59;100.00;102946.47;4957382;28;20509;-78
2023/02/13 05:05:33;;;;;;;32.28;21.10;;;;;;;6.52;100.00;102935.50;4958723;28;20054;-77
2023/02/13 05:08:00;;;;;;;30.70;21.20;;;;;;;6.47;100.00;102936.66;4957320;28;20158;-77
2023/02/13 05:10:27;;;;;;;31.92;21.67;;;;;;;6.36;100.00;102942.34;4957588;28;20173;-77
2023/02/13 05:12:54;;;;;;;29.35;20.40;;;;;;;6.27;100.00;102935.81;4958178;28;20111;-78
2023/02/13 05:15:22;;;;;;;31.85;21.00;;;;;;;6.15;100.00;102941.59;4952883;28;20139;-78
2023/02/13 05:17:49;;;;;;;31.02;21.17;;;;;;;6.12;100.00;102948.72;4959416;28;20525;-78
2023/02/13 05:20:18;;;;;;;33.03;20.98;;;;;;;6.04;100.00;102938.66;4956315;28;20560;-78
2023/02/13 05:25:29;;;;;;;33.42;21.25;;;;;;;5.85;100.00;102938.63;4958729;29;20106;-78
2023/02/13 05:27:56;;;;;;;34.60;21.58;;;;;;;5.85;100.00;102942.97;4957690;28;20075;-77
2023/02/13 05:30:21;;;;;;;30.63;20.30;;;;;;;5.87;100.00;102939.38;4959587;28;20506;-77
2023/02/13 05:32:49;;;;;;;34.42;21.85;;;;;;;5.78;100.00;102934.59;4959962;28;20169;-78
2023/02/13 05:35:18;;;;;;;33.80;22.52;;;;;;;5.72;100.00;102947.84;4959212;28;20047;-77
2023/02/13 05:37:45;;;;;;;30.73;21.17;;;;;;;5.77;100.00;102948.50;4953155;29;20482;-77
2023/02/13 05:40:13;;;;;;;33.42;21.90;;;;;;;5.76;100.00;102949.41;4959471;28;20087;-78
2023/02/13 05:42:40;;;;;;;35.05;22.63;;;;;;;5.65;100.00;102952.50;4959153;28;20055;-78
2023/02/13 05:45:07;;;;;;;33.80;22.23;;;;;;;5.64;100.00;102948.22;4959310;28;20075;-79
2023/02/13 05:47:34;;;;;;;33.97;21.35;;;;;;;5.59;100.00;102946.75;4958540;29;20079;-78
2023/02/13 05:50:00;;;;;;;34.38;21.98;;;;;;;5.55;100.00;102952.97;4961307;28;20109;-77
2023/02/13 05:52:28;;;;;;;37.47;22.33;;;;;;;5.46;100.00;102941.22;4968975;28;20051;-78
2023/02/13 05:54:55;;;;;;;35.67;22.08;;;;;;;5.46;100.00;102940.38;4968052;28;20085;-77
2023/02/13 05:57:21;;;;;;;39.33;21.92;;;;;;;5.47;100.00;102953.31;4966681;28;20517;-77
2023/02/13 05:59:48;;;;;;;38.60;24.52;;;;;;;5.38;100.00;102943.31;4967588;28;20067;-78
2023/02/13 06:02:15;;;;;;;36.38;22.70;;;;;;;5.39;100.00;102955.38;4968724;28;20153;-78
2023/02/13 06:04:41;;;;;;;37.15;23.00;;;;;;;5.36;100.00;102949.47;4959631;29;20087;-78
2023/02/13 06:07:08;;;;;;;36.10;23.42;;;;;;;5.27;100.00;102953.31;4966284;28;20106;-78
2023/02/13 06:09:36;;;;;;;37.67;23.33;;;;;;;5.22;100.00;102937.06;4965052;28;20062;-80
2023/02/13 06:12:03;;;;;;;35.33;22.67;;;;;;;5.24;100.00;102951.69;4960577;28;20117;-78
2023/02/13 06:14:29;;;;;;;36.33;22.88;;;;;;;5.14;100.00;102947.81;4960446;28;20052;-78
2023/02/13 06:16:56;;;;;;;36.53;22.90;;;;;;;5.13;100.00;102951.31;4972956;28;20055;-79
2023/02/13 06:19:23;;;;;;;36.85;23.08;;;;;;;5.02;100.00;102943.13;4972053;28;20035;-79
2023/02/13 06:21:49;;;;;;;37.15;23.13;;;;;;;5.08;100.00;102957.59;4963342;28;20051;-78
2023/02/13 06:24:16;;;;;;;37.70;22.42;;;;;;;5.06;100.00;102955.06;4959865;28;20078;-78
2023/02/13 06:26:44;;;;;;;35.88;23.08;;;;;;;5.04;100.00;102949.09;4951387;29;20115;-78
2023/02/13 06:29:11;;;;;;;41.13;23.52;;;;;;;5.08;100.00;102947.22;4959007;28;20051;-78
2023/02/13 06:31:38;;;;;;;38.80;23.63;;;;;;;5.07;100.00;102945.53;4959284;28;20055;-77
2023/02/13 06:34:05;;;;;;;41.28;24.17;;;;;;;5.05;100.00;102949.94;4964795;28;20078;-79
2023/02/13 06:36:31;;;;;;;40.05;23.35;;;;;;;4.99;100.00;102949.28;4960606;28;20566;-77
2023/02/13 06:38:58;;;;;;;39.65;22.40;;;;;;;4.95;100.00;102946.88;4958631;28;20459;-78
2023/02/13 06:41:25;;;;;;;37.75;23.52;;;;;;;4.88;100.00;102951.47;4959132;28;20062;-80
2023/02/13 06:43:53;;;;;;;37.20;22.35;;;;;;;4.78;100.00;102934.59;4958246;28;20047;-78
2023/02/13 06:46:19;;;;;;;39.67;23.33;;;;;;;4.83;100.00;102937.84;4957684;28;20142;-77
2023/02/13 06:48:46;;;;;;;38.15;23.00;;;;;;;4.80;100.00;102948.34;4958945;28;20055;-78
2023/02/13 06:51:12;;;;;;;38.85;23.20;;;;;;;4.78;100.00;102942.38;4959320;28;20133;-79
2023/02/13 06:53:39;;;;;;;40.42;23.50;;;;;;;4.86;100.00;102949.84;4959869;28;20083;-80
2023/02/13 06:56:06;;;;;;;38.58;22.48;;;;;;;4.90;100.00;102952.25;4959643;28;20130;-79
2023/02/13 06:58:33;;;;;;;39.13;22.27;;;;;;;4.88;100.00;102942.84;4960721;28;20075;-78
2023/02/13 07:01:01;;;;;;;36.72;23.10;;;;;;;4.90;100.00;102947.06;4959587;28;20047;-79
2023/02/13 07:03:28;;;;;;;34.47;22.77;;;;;;;4.84;100.00;102951.66;4959793;28;20051;-79
2023/02/13 07:05:55;;;;;;;34.40;22.00;;;;;;;4.76;100.00;102944.19;4954838;28;20142;-79
2023/02/13 07:08:22;;;;;;;41.50;22.85;;;;;;;4.80;100.00;102953.53;4959368;29;20196;-77
2023/02/13 07:10:49;;;;;;;33.83;22.13;;;;;;;4.79;100.00;102944.06;4961371;29;20119;-77
2023/02/13 07:13:15;;;;;;;33.97;21.33;;;;;;;4.78;100.00;102939.78;4961667;28;20078;-77
2023/02/13 07:15:42;;;;;;;36.15;22.40;;;;;;;4.84;100.00;102952.50;4962958;28;20083;-77
2023/02/13 07:18:10;;;;;;;34.10;21.00;;;;;;;4.88;100.00;102954.06;4961883;28;20106;-79
2023/02/13 07:20:37;;;;;;;34.95;20.77;;;;;;;4.90;100.00;102952.25;4962731;28;20114;-79
2023/02/13 07:23:05;;;;;;;37.28;21.40;;;;;;;4.98;100.00;102952.78;4962388;28;20075;-76
2023/02/13 07:25:32;;;;;;;35.75;21.58;;;;;;;5.23;100.00;102956.94;4960432;28;20442;-78
2023/02/13 07:28:01;;;;;;;33.03;22.27;;;;;;;5.67;100.00;102948.06;4958676;28;20130;-76
2023/02/13 07:30:27;;;;;;;30.15;20.25;;;;;;;6.02;100.00;102955.25;4959743;28;20540;-78
2023/02/13 07:32:57;;;;;;;28.83;18.98;;;;;;;6.23;100.00;102956.84;4959880;28;20133;-77
2023/02/13 07:35:26;;;;;;;34.15;19.35;;;;;;;6.19;100.00;102947.47;4958847;28;20043;-78
2023/02/13 07:37:53;;;;;;;28.48;18.73;;;;;;;6.26;100.00;102946.28;4957062;28;20047;-78
2023/02/13 07:40:20;;;;;;;27.08;18.20;;;;;;;6.55;100.00;102957.94;4952666;28;20043;-78
2023/02/13 07:42:47;;;;;;;27.02;18.63;;;;;;;6.78;100.00;102962.00;4960053;28;20059;-78
2023/02/13 07:45:14;;;;;;;26.15;17.67;;;;;;;6.68;100.00;102959.00;4959294;28;20506;-78
2023/02/13 07:47:41;;;;;;;26.05;17.98;;;;;;;6.63;100.00;102963.59;4961196;28;20581;-77
2023/02/13 07:50:08;;;;;;;27.77;18.33;;;;;;;6.71;100.00;102955.41;4961640;28;20138;-79
2023/02/13 07:52:37;;;;;;;28.13;16.98;;;;;;;6.85;100.00;102959.03;4961961;28;20130;-77
2023/02/13 07:55:03;;;;;;;27.05;17.35;;;;;;;6.98;98.97;102954.94;4963107;28;20046;-78
2023/02/13 07:57:30;;;;;;;28.33;17.92;;;;;;;6.97;98.46;102955.00;4959828;28;20545;-78
2023/02/13 07:59:57;;;;;;;27.90;17.60;;;;;;;7.14;98.07;102952.38;4960063;28;20073;-78
2023/02/13 08:02:24;;;;;;;23.98;16.50;;;;;;;7.20;97.59;102959.03;4957277;28;20055;-78
2023/02/13 08:04:50;;;;;;;25.27;16.10;;;;;;;7.23;97.04;102948.47;4955764;28;20495;-78
2023/02/13 08:07:17;;;;;;;28.23;17.40;;;;;;;7.29;96.85;102955.97;4958121;28;20054;-78
2023/02/13 08:12:31;;;;;;;25.15;16.10;;;;;;;7.32;95.71;102961.03;4959357;29;20065;-78
2023/02/13 08:14:57;;;;;;;24.05;16.70;;;;;;;7.58;95.40;102950.09;4960410;28;20058;-79
2023/02/13 08:17:24;;;;;;;25.58;16.85;;;;;;;7.66;94.90;102963.56;4958124;28;20139;-79
2023/02/13 08:19:50;;;;;;;24.23;17.15;;;;;;;7.62;94.38;102956.81;4959192;28;20075;-78
2023/02/13 08:22:17;;;;;;;22.10;15.98;;;;;;;7.68;94.25;102950.47;4957223;28;20086;-76
2023/02/13 08:25:06;;;;;;;24.42;15.25;;;;;;;7.61;93.89;102955.13;4956487;29;20138;-77
2023/02/13 08:27:45;;;;;;;22.27;15.63;;;;;;;7.61;93.68;102928.25;4960160;28;20075;-79
2023/02/13 08:30:28;;;;;;;20.92;15.55;;;;;;;7.71;93.49;102949.44;4961048;29;20066;-78
2023/02/13 08:36:17;;;;;;;23.13;16.20;;;;;;;7.72;93.00;102951.13;4958260;29;20078;-80
2023/02/13 08:38:45;;;;;;;22.60;16.05;;;;;;;7.71;92.94;102933.81;4953762;29;20091;-80
2023/02/13 08:41:17;;;;;;;23.77;15.52;;;;;;;7.97;92.40;102951.53;4945162;29;20125;-79
2023/02/13 08:46:46;;;;;;;25.30;16.05;;;;;;;7.84;91.90;102947.88;4954232;28;20097;-78
2023/02/13 08:49:25;;;;;;;20.73;15.40;;;;;;;7.78;92.08;102935.19;4957764;29;20047;-78
2023/02/13 08:51:52;;;;;;;21.48;15.45;;;;;;;7.80;91.87;102941.16;4956411;28;20381;-76
2023/02/13 08:54:18;;;;;;;21.48;16.02;;;;;;;7.99;91.57;102954.91;4956302;28;20137;-78
2023/02/13 08:56:46;;;;;;;22.38;16.33;;;;;;;7.84;91.91;102966.13;4958291;28;20525;-77
2023/02/13 08:59:13;;;;;;;23.50;15.38;;;;;;;7.70;92.11;102963.41;4957268;29;20122;-78
2023/02/13 09:01:40;;;;;;;22.35;15.40;;;;;;;7.54;92.53;102952.97;4959355;28;20078;-78
2023/02/13 09:04:06;;;;;;;21.65;15.40;;;;;;;7.56;92.71;102956.34;4959282;28;21177;-78
2023/02/13 09:06:33;;;;;;;23.08;15.60;;;;;;;7.59;93.02;102949.16;4959194;28;20107;-77
2023/02/13 09:08:59;;;;;;;23.13;15.82;;;;;;;7.50;93.02;102957.50;4959964;28;20111;-78
2023/02/13 09:11:26;;;;;;;23.77;15.98;;;;;;;7.53;92.97;102962.53;4963727;28;20047;-77
2023/02/13 09:13:54;;;;;;;23.67;16.35;;;;;;;7.63;92.87;102960.28;4966439;28;20101;-77
2023/02/13 09:16:22;;;;;;;22.02;15.73;;;;;;;7.63;93.05;102958.50;4965732;28;20107;-76
2023/02/13 09:18:51;;;;;;;23.88;15.82;;;;;;;7.60;92.84;102945.63;4965612;28;20090;-77
2023/02/13 09:21:19;;;;;;;22.88;15.13;;;;;;;7.64;92.68;102957.59;4963804;28;20071;-77
2023/02/13 09:23:45;;;;;;;22.30;15.07;;;;;;;7.66;92.61;102958.34;4967388;28;20541;-77
2023/02/13 09:26:15;;;;;;;22.80;15.35;;;;;;;7.79;92.22;102957.72;4965477;28;20087;-78
2023/02/13 09:28:42;;;;;;;23.05;15.57;;;;;;;7.79;91.90;102949.91;4966621;28;20043;-78
2023/02/13 09:31:13;;;;;;;23.65;15.60;;;;;;;7.78;91.39;102945.59;4960530;28;20069;-79
2023/02/13 09:33:40;;;;;;;28.33;16.38;;;;;;;7.90;91.28;102947.56;4960064;28;20144;-78
2023/02/13 09:36:09;;;;;;;21.77;15.48;;;;;;;7.95;91.08;102953.38;4961456;28;20079;-78
2023/02/13 09:38:36;;;;;;;22.83;16.17;;;;;;;7.95;91.13;102949.00;4960983;28;20102;-78
2023/02/13 09:41:05;;;;;;;21.60;15.45;;;;;;;7.91;90.74;102963.13;4962130;29;20051;-79
2023/02/13 09:43:35;;;;;;;22.75;15.40;;;;;;;7.96;90.78;102947.25;4962577;28;20082;-77
2023/02/13 09:46:08;;;;;;;22.67;15.60;;;;;;;8.03;90.20;102955.56;4957241;29;20127;-79
2023/02/13 09:48:39;;;;;;;27.27;16.20;;;;;;;8.04;90.12;102945.03;4959682;28;20111;-78
2023/02/13 09:51:06;;;;;;;20.38;14.75;;;;;;;8.15;89.84;102955.72;4961409;28;20137;-78
2023/02/13 09:53:35;;;;;;;22.27;15.43;;;;;;;8.16;89.34;102951.34;4957843;29;20485;-78
2023/02/13 09:56:09;;;;;;;22.63;14.45;;;;;;;8.21;89.20;102952.78;4962017;28;20051;-79
2023/02/13 09:58:44;;;;;;;22.42;16.08;;;;;;;8.26;89.31;102948.16;4962044;28;20138;-79
2023/02/13 10:01:21;;;;;;;21.25;14.65;;;;;;;8.34;88.98;102960.81;4961392;28;20083;-79
2023/02/13 10:03:59;;;;;;;24.83;15.68;;;;;;;8.42;88.66;102963.00;4962340;28;20054;-80
2023/02/13 10:06:31;;;;;;;20.70;14.98;;;;;;;8.48;88.46;102947.00;4964795;28;20119;-79
2023/02/13 10:09:17;;;;;;;20.85;14.32;;;;;;;8.44;87.84;102955.94;4960804;29;20051;-78
2023/02/13 10:12:07;;;;;;;21.27;14.75;;;;;;;8.49;87.39;102951.31;4959560;29;20070;-80
2023/02/13 10:14:42;;;;;;;21.77;13.57;;;;;;;8.61;87.53;102963.63;4967948;28;20087;-78
2023/02/13 10:17:14;;;;;;;23.52;14.52;;;;;;;8.84;87.54;102963.19;4963980;29;20055;-79
2023/02/13 10:19:46;;;;;;;21.43;14.57;;;;;;;8.73;86.73;102960.34;4964607;28;20083;-79
2023/02/13 10:22:16;;;;;;;24.83;15.57;;;;;;;8.89;86.82;102963.78;4962145;28;20330;-79
2023/02/13 10:24:48;;;;;;;20.95;13.50;;;;;;;8.87;86.01;102957.78;4962237;28;20102;-79
2023/02/13 10:27:21;;;;;;;20.67;13.97;;;;;;;8.93;86.17;102956.59;4962136;28;20130;-79
2023/02/13 10:30:08;;;;;;;19.55;13.35;;;;;;;9.03;85.59;102949.06;4959809;29;20082;-80
2023/02/13 10:35:43;;;;;;;22.33;13.93;;;;;;;9.35;85.07;102942.78;4959481;28;20079;-79
2023/02/13 10:38:16;;;;;;;18.58;14.10;;;;;;;9.31;84.59;102943.91;4958866;29;20103;-78
2023/02/13 10:40:53;;;;;;;19.17;13.73;;;;;;;9.19;84.12;102947.22;4958983;28;20061;-80
2023/02/13 10:43:22;;;;;;;20.20;13.57;;;;;;;9.22;84.49;102950.50;4960071;29;20058;-79
2023/02/13 10:46:01;;;;;;;22.85;13.52;;;;;;;9.39;84.59;102946.06;4965088;28;20083;-76
2023/02/13 10:51:10;;;;;;;23.08;14.32;;;;;;;9.24;83.75;102932.13;4913755;29;20087;-77
2023/02/13 10:53:53;;;;;;;19.35;13.25;;;;;;;9.36;83.66;102928.78;4915417;29;20115;-78
2023/02/13 10:56:37;;;;;;;18.67;13.43;;;;;;;9.72;83.22;102938.78;4915480;29;20466;-78
2023/02/13 10:59:32;;;;;;;18.33;13.30;;;;;;;9.80;82.62;102925.22;4914966;29;20087;-80
2023/02/13 11:02:12;;;;;;;20.83;13.52;;;;;;;9.77;82.36;102926.25;4903696;29;20083;-80
2023/02/13 11:04:40;;;;;;;21.77;12.75;;;;;;;9.89;82.11;102929.91;4916320;29;20127;-79
2023/02/13 11:07:14;;;;;;;17.85;13.68;;;;;;;10.00;82.36;102927.41;4917014;29;20475;-79
2023/02/13 11:09:45;;;;;;;16.45;12.10;;;;;;;10.04;81.68;102913.22;4916567;29;20048;-79
2023/02/13 11:12:25;;;;;;;16.55;12.55;;;;;;;10.21;81.36;102905.19;4916651;29;20107;-81
2023/02/13 11:15:00;;;;;;;17.58;12.57;;;;;;;10.31;81.01;102915.91;4918607;29;20479;-79
2023/02/13 11:17:31;;;;;;;16.85;11.70;;;;;;;10.38;80.13;102905.88;4916788;29;20150;-78
2023/02/13 11:20:00;;;;;;;15.85;12.05;;;;;;;10.20;79.63;102902.66;4916471;29;20592;-78
2023/02/13 11:22:33;;;;;;;17.85;12.73;;;;;;;10.33;79.40;102893.09;4916590;29;20048;-78
2023/02/13 11:25:01;;;;;;;;;;;;;;;10.45;79.70;102900.13;4914593;29;20148;-78
2023/02/13 11:27:31;;;;;;;17.17;11.73;;;;;;;10.55;79.18;102897.75;4916233;29;19933;-78
2023/02/13 11:30:00;;;;;;;16.60;11.73;;;;;;;10.55;78.76;102884.66;4915617;29;20111;-79
2023/02/13 11:32:29;;;;;;;16.30;11.20;;;;;;;10.71;78.28;102887.09;4916275;29;20056;-80
2023/02/13 11:34:56;;;;;;;15.25;11.52;;;;;;;10.62;78.60;102893.78;4916105;29;20134;-80
2023/02/13 11:37:26;;;;;;;16.08;10.75;;;;;;;10.71;78.48;102874.00;4918500;29;20144;-80
2023/02/13 11:39:56;;;;;;;17.10;11.43;;;;;;;10.93;77.75;102872.44;4919472;29;20056;-80
2023/02/13 11:42:28;;;;;;;14.30;10.75;;;;;;;10.91;77.13;102860.41;4919335;29;20051;-80
2023/02/13 11:44:59;;;;;;;18.42;11.18;;;;;;;10.95;77.08;102870.56;4924009;29;20135;-79
2023/02/13 11:47:39;;;;;;;18.52;11.30;;;;;;;10.92;76.72;102862.91;4922817;29;20094;-80
2023/02/13 11:50:19;;;;;;;15.77;11.23;;;;;;;10.89;76.59;102870.13;4919261;29;20140;-80
2023/02/13 11:52:56;;;;;;;15.02;10.75;;;;;;;11.13;76.53;102849.31;4917426;29;20147;-81
2023/02/13 11:55:32;;;;;;;14.00;10.13;;;;;;;11.23;75.83;102847.72;4920031;29;20052;-81
2023/02/13 11:58:01;;;;;;;15.68;10.00;;;;;;;11.22;75.40;102846.06;4923081;29;20048;-81
2023/02/13 12:00:39;;;;;;;13.25;9.75;;;;;;;11.16;75.35;102830.75;4923655;29;20089;-80
2023/02/13 12:03:27;;;;;;;15.52;10.27;;;;;;;11.29;74.99;102826.34;4924559;29;20084;-80
2023/02/13 12:06:04;;;;;;;16.08;10.18;;;;;;;11.34;74.85;102831.25;4925349;29;20049;-80
2023/02/13 12:08:32;;;;;;;14.38;9.77;;;;;;;11.48;74.84;102836.34;4923561;29;20056;-80
2023/02/13 13:05:00;;;;;;;12.80;7.78;;;;;;;12.27;69.68;102747.47;4976484;23;20043;-80
2023/02/13 13:07:51;;;;;;;10.68;7.15;;;;;;;12.45;69.20;102742.59;4959474;28;20058;-81
2023/02/13 13:10:40;;;;;;;10.35;6.97;;;;;;;12.65;69.25;102769.97;4951175;29;20482;-80
2023/02/13 13:13:17;;;;;;;10.43;7.07;;;;;;;12.67;68.52;102760.19;4956134;29;20066;-81
2023/02/13 13:15:54;;;;;;;8.75;7.00;;;;;;;12.81;69.04;102762.56;4952887;29;20079;-80
2023/02/13 13:18:32;;;;;;;9.88;7.10;;;;;;;12.83;68.89;102760.66;4954081;28;20059;-80
2023/02/13 13:21:08;;;;;;;9.48;7.00;;;;;;;12.79;68.99;102756.59;4948480;28;20053;-80
2023/02/13 13:23:41;;;;;;;11.05;6.78;;;;;;;12.89;68.73;102754.94;4958576;29;20077;-80
2023/02/13 13:26:20;;;;;;;8.55;6.40;;;;;;;13.05;68.57;102769.50;4954555;28;20452;-79